アンタナナリボ の空港の天気 - METARとTAF

イヴァト空港(アンタナナリボ) ( FMMI / TNR ) - マダガスカル アンタナナリボ
飛行場実況気象(Metar)
観測時間12/02 00:30 EAT (12/01 21:30 UTC)
風向・風速静穏 0m/s
視程10km以上
天気現象
少しの雲 雲底高度 520m
気温18℃
湿度94%
気圧1017hPa
METARFMMI 012130Z 00000KT 9999 FEW017 18/17 Q1017 NOSIG
過去の天気等 Google飛行場航空写真 Wunderground天気予報

過去48時間のMETAR

飛行場予報(TAF)
発表時間: -
1日21時 EAT ~ 1日23時 EAT に 確率 30% で一時的に
視程4500m
天気現象雷雨
1日23時 EAT ~ 2日1時 EAT に徐々に
少しの雲 雲底高度 300m
全天の8割程度の雲 雲底高度 610m
2日2時 EAT ~ 2日5時 EAT に 確率 30% で一時的に
視程4500m
天気現象
2日11時 EAT ~ 2日13時 EAT に徐々に
風向・風速北 7m/s
全天の8割程度の積乱雲 雲底高度 610m
2日15時 EAT ~ 2日23時 EAT に 確率 40% で一時的に
視程4000m
天気現象雷雨
2日21時 EAT ~ 2日23時 EAT に徐々に
風向・風速西 3m/s
少しの雲 雲底高度 520m
全天の8割程度の雲 雲底高度 610m
TAF
FMMI 011700Z 0118/0224 VRB04KT 9999 SCT020CB
PROB30 TEMPO 0118/0120 4500 TSRA
BECMG 0120/0122 FEW010 BKN020
PROB30 TEMPO 0123/0202 4500 RA
BECMG 0208/0210 35014KT BKN020CB
PROB40 TEMPO 0212/0220 4000 TSRA
BECMG 0218/0220 26006KT FEW017 BKN020